sensor_id;sensor_type;location;lat;lon;timestamp;temperature;humidity
20845;DHT22;10583;49.084;8.646;2022-07-31T00:01:24;17.80;99.90
20845;DHT22;10583;49.084;8.646;2022-07-31T00:03:51;17.80;99.90
20845;DHT22;10583;49.084;8.646;2022-07-31T00:06:18;17.80;99.90
20845;DHT22;10583;49.084;8.646;2022-07-31T00:08:44;17.70;99.90
20845;DHT22;10583;49.084;8.646;2022-07-31T00:11:11;17.80;99.90
20845;DHT22;10583;49.084;8.646;2022-07-31T00:13:38;17.70;99.90
20845;DHT22;10583;49.084;8.646;2022-07-31T00:16:06;17.60;99.90
20845;DHT22;10583;49.084;8.646;2022-07-31T00:18:33;17.50;99.90
20845;DHT22;10583;49.084;8.646;2022-07-31T00:21:00;17.50;99.90
20845;DHT22;10583;49.084;8.646;2022-07-31T00:23:27;17.40;99.90
20845;DHT22;10583;49.084;8.646;2022-07-31T00:25:54;17.30;99.90
20845;DHT22;10583;49.084;8.646;2022-07-31T00:28:20;17.30;99.90
20845;DHT22;10583;49.084;8.646;2022-07-31T00:30:47;17.20;99.90
20845;DHT22;10583;49.084;8.646;2022-07-31T00:33:15;17.10;99.90
20845;DHT22;10583;49.084;8.646;2022-07-31T00:35:42;17.10;99.90
20845;DHT22;10583;49.084;8.646;2022-07-31T00:38:08;17.00;99.90
20845;DHT22;10583;49.084;8.646;2022-07-31T00:40:36;16.90;99.90
20845;DHT22;10583;49.084;8.646;2022-07-31T00:43:10;17.00;99.90
20845;DHT22;10583;49.084;8.646;2022-07-31T00:45:37;16.90;99.90
20845;DHT22;10583;49.084;8.646;2022-07-31T00:48:04;16.80;99.90
20845;DHT22;10583;49.084;8.646;2022-07-31T00:50:32;16.80;99.90
20845;DHT22;10583;49.084;8.646;2022-07-31T00:52:59;16.70;99.90
20845;DHT22;10583;49.084;8.646;2022-07-31T00:55:26;16.70;99.90
20845;DHT22;10583;49.084;8.646;2022-07-31T00:57:53;16.70;99.90
20845;DHT22;10583;49.084;8.646;2022-07-31T01:00:20;16.70;99.90
20845;DHT22;10583;49.084;8.646;2022-07-31T01:02:47;16.70;99.90
20845;DHT22;10583;49.084;8.646;2022-07-31T01:05:14;16.80;99.90
20845;DHT22;10583;49.084;8.646;2022-07-31T01:07:44;16.80;99.90
20845;DHT22;10583;49.084;8.646;2022-07-31T01:10:18;16.70;99.90
20845;DHT22;10583;49.084;8.646;2022-07-31T01:12:53;16.60;99.90
20845;DHT22;10583;49.084;8.646;2022-07-31T01:15:21;16.60;99.90
20845;DHT22;10583;49.084;8.646;2022-07-31T01:17:50;16.50;99.90
20845;DHT22;10583;49.084;8.646;2022-07-31T01:20:17;16.50;99.90
20845;DHT22;10583;49.084;8.646;2022-07-31T01:23:16;16.40;99.90
20845;DHT22;10583;49.084;8.646;2022-07-31T01:25:52;16.40;99.90
20845;DHT22;10583;49.084;8.646;2022-07-31T01:28:36;16.30;99.90
20845;DHT22;10583;49.084;8.646;2022-07-31T01:31:07;16.20;99.90
20845;DHT22;10583;49.084;8.646;2022-07-31T01:33:41;16.10;99.90
20845;DHT22;10583;49.084;8.646;2022-07-31T01:36:14;16.20;99.90
20845;DHT22;10583;49.084;8.646;2022-07-31T01:38:45;16.10;99.90
20845;DHT22;10583;49.084;8.646;2022-07-31T01:41:15;16.00;99.90
20845;DHT22;10583;49.084;8.646;2022-07-31T01:43:47;16.00;99.90
20845;DHT22;10583;49.084;8.646;2022-07-31T01:46:18;16.00;99.90
20845;DHT22;10583;49.084;8.646;2022-07-31T01:48:46;16.00;99.90
20845;DHT22;10583;49.084;8.646;2022-07-31T01:51:14;16.00;99.90
20845;DHT22;10583;49.084;8.646;2022-07-31T01:53:43;16.10;99.90
20845;DHT22;10583;49.084;8.646;2022-07-31T01:56:11;16.20;99.90
20845;DHT22;10583;49.084;8.646;2022-07-31T01:58:44;16.20;99.90
20845;DHT22;10583;49.084;8.646;2022-07-31T02:01:13;16.30;99.90
20845;DHT22;10583;49.084;8.646;2022-07-31T02:03:41;16.30;99.90
20845;DHT22;10583;49.084;8.646;2022-07-31T02:06:10;16.30;99.90
20845;DHT22;10583;49.084;8.646;2022-07-31T02:08:37;16.30;99.90
20845;DHT22;10583;49.084;8.646;2022-07-31T02:11:04;16.30;99.90
20845;DHT22;10583;49.084;8.646;2022-07-31T02:13:32;16.30;99.90
20845;DHT22;10583;49.084;8.646;2022-07-31T02:16:00;16.30;99.90
20845;DHT22;10583;49.084;8.646;2022-07-31T02:18:27;16.30;99.90
20845;DHT22;10583;49.084;8.646;2022-07-31T02:20:56;16.30;99.90
20845;DHT22;10583;49.084;8.646;2022-07-31T02:23:23;16.30;99.90
20845;DHT22;10583;49.084;8.646;2022-07-31T02:25:50;16.30;99.90
20845;DHT22;10583;49.084;8.646;2022-07-31T02:28:18;16.10;99.90
20845;DHT22;10583;49.084;8.646;2022-07-31T02:30:46;16.00;99.90
20845;DHT22;10583;49.084;8.646;2022-07-31T02:33:17;16.00;99.90
20845;DHT22;10583;49.084;8.646;2022-07-31T02:35:47;15.90;99.90
20845;DHT22;10583;49.084;8.646;2022-07-31T02:38:16;15.90;99.90
20845;DHT22;10583;49.084;8.646;2022-07-31T02:40:44;15.90;99.90
20845;DHT22;10583;49.084;8.646;2022-07-31T02:43:10;15.70;99.90
20845;DHT22;10583;49.084;8.646;2022-07-31T02:45:38;15.60;99.90
20845;DHT22;10583;49.084;8.646;2022-07-31T02:48:06;15.60;99.90
20845;DHT22;10583;49.084;8.646;2022-07-31T02:50:36;15.60;99.90
20845;DHT22;10583;49.084;8.646;2022-07-31T02:53:03;15.60;99.90
20845;DHT22;10583;49.084;8.646;2022-07-31T02:55:30;15.50;99.90
20845;DHT22;10583;49.084;8.646;2022-07-31T02:57:57;15.50;99.90
20845;DHT22;10583;49.084;8.646;2022-07-31T03:00:24;15.50;99.90
20845;DHT22;10583;49.084;8.646;2022-07-31T03:02:52;15.50;99.90
20845;DHT22;10583;49.084;8.646;2022-07-31T03:05:19;15.40;99.90
20845;DHT22;10583;49.084;8.646;2022-07-31T03:07:48;15.40;99.90
20845;DHT22;10583;49.084;8.646;2022-07-31T03:10:14;15.40;99.90
20845;DHT22;10583;49.084;8.646;2022-07-31T03:12:42;15.40;99.90
20845;DHT22;10583;49.084;8.646;2022-07-31T03:15:12;15.30;99.90
20845;DHT22;10583;49.084;8.646;2022-07-31T03:17:40;15.30;99.90
20845;DHT22;10583;49.084;8.646;2022-07-31T03:20:08;15.30;99.90
20845;DHT22;10583;49.084;8.646;2022-07-31T03:22:36;15.30;99.90
20845;DHT22;10583;49.084;8.646;2022-07-31T03:25:06;15.30;99.90
20845;DHT22;10583;49.084;8.646;2022-07-31T03:27:34;15.30;99.90
20845;DHT22;10583;49.084;8.646;2022-07-31T03:30:01;15.40;99.90
20845;DHT22;10583;49.084;8.646;2022-07-31T03:32:27;15.40;99.90
20845;DHT22;10583;49.084;8.646;2022-07-31T03:34:55;15.40;99.90
20845;DHT22;10583;49.084;8.646;2022-07-31T03:37:21;15.40;99.90
20845;DHT22;10583;49.084;8.646;2022-07-31T03:39:48;15.30;99.90
20845;DHT22;10583;49.084;8.646;2022-07-31T03:42:16;15.30;99.90
20845;DHT22;10583;49.084;8.646;2022-07-31T03:44:43;15.20;99.90
20845;DHT22;10583;49.084;8.646;2022-07-31T03:47:10;15.20;99.90
20845;DHT22;10583;49.084;8.646;2022-07-31T03:49:37;15.10;99.90
20845;DHT22;10583;49.084;8.646;2022-07-31T03:52:05;15.10;99.90
20845;DHT22;10583;49.084;8.646;2022-07-31T03:54:31;15.10;99.90
20845;DHT22;10583;49.084;8.646;2022-07-31T03:56:58;15.10;99.90
20845;DHT22;10583;49.084;8.646;2022-07-31T03:59:27;15.10;99.90
20845;DHT22;10583;49.084;8.646;2022-07-31T04:01:55;15.10;99.90
20845;DHT22;10583;49.084;8.646;2022-07-31T04:04:21;15.20;99.90
20845;DHT22;10583;49.084;8.646;2022-07-31T04:06:48;15.20;99.90
20845;DHT22;10583;49.084;8.646;2022-07-31T04:09:15;15.20;99.90
20845;DHT22;10583;49.084;8.646;2022-07-31T04:11:41;15.30;99.90
20845;DHT22;10583;49.084;8.646;2022-07-31T04:14:08;15.30;99.90
20845;DHT22;10583;49.084;8.646;2022-07-31T04:16:36;15.40;99.90
20845;DHT22;10583;49.084;8.646;2022-07-31T04:19:02;15.40;99.90
20845;DHT22;10583;49.084;8.646;2022-07-31T04:21:29;15.40;99.90
20845;DHT22;10583;49.084;8.646;2022-07-31T04:23:56;15.50;99.90
20845;DHT22;10583;49.084;8.646;2022-07-31T04:26:23;15.60;99.90
20845;DHT22;10583;49.084;8.646;2022-07-31T04:28:50;15.70;99.90
20845;DHT22;10583;49.084;8.646;2022-07-31T04:31:16;15.80;99.90
20845;DHT22;10583;49.084;8.646;2022-07-31T04:33:44;15.90;99.90
20845;DHT22;10583;49.084;8.646;2022-07-31T04:36:11;16.00;99.90
20845;DHT22;10583;49.084;8.646;2022-07-31T04:38:38;16.10;99.90
20845;DHT22;10583;49.084;8.646;2022-07-31T04:41:05;16.20;99.90
20845;DHT22;10583;49.084;8.646;2022-07-31T04:43:31;16.30;99.90
20845;DHT22;10583;49.084;8.646;2022-07-31T04:45:58;16.40;99.90
20845;DHT22;10583;49.084;8.646;2022-07-31T04:48:24;16.50;99.90
20845;DHT22;10583;49.084;8.646;2022-07-31T04:50:52;16.60;99.90
20845;DHT22;10583;49.084;8.646;2022-07-31T04:53:19;16.70;99.90
20845;DHT22;10583;49.084;8.646;2022-07-31T04:55:46;16.70;99.90
20845;DHT22;10583;49.084;8.646;2022-07-31T04:58:33;16.70;99.90
20845;DHT22;10583;49.084;8.646;2022-07-31T05:01:00;16.70;99.90
20845;DHT22;10583;49.084;8.646;2022-07-31T05:03:27;16.60;99.90
20845;DHT22;10583;49.084;8.646;2022-07-31T05:05:55;16.70;99.90
20845;DHT22;10583;49.084;8.646;2022-07-31T05:08:21;16.70;99.90
20845;DHT22;10583;49.084;8.646;2022-07-31T05:10:48;16.80;99.90
20845;DHT22;10583;49.084;8.646;2022-07-31T05:13:32;16.90;99.90
20845;DHT22;10583;49.084;8.646;2022-07-31T05:15:59;17.00;99.90
20845;DHT22;10583;49.084;8.646;2022-07-31T05:18:26;17.10;99.90
20845;DHT22;10583;49.084;8.646;2022-07-31T05:20:52;17.20;99.90
20845;DHT22;10583;49.084;8.646;2022-07-31T05:23:20;17.20;99.90
20845;DHT22;10583;49.084;8.646;2022-07-31T05:25:47;17.30;99.90
20845;DHT22;10583;49.084;8.646;2022-07-31T05:28:14;17.30;99.90
20845;DHT22;10583;49.084;8.646;2022-07-31T05:30:40;17.40;99.90
20845;DHT22;10583;49.084;8.646;2022-07-31T05:33:07;17.40;99.90
20845;DHT22;10583;49.084;8.646;2022-07-31T05:35:34;17.50;99.90
20845;DHT22;10583;49.084;8.646;2022-07-31T05:38:00;17.50;99.90
20845;DHT22;10583;49.084;8.646;2022-07-31T05:40:29;17.70;99.90
20845;DHT22;10583;49.084;8.646;2022-07-31T05:42:55;17.70;99.90
20845;DHT22;10583;49.084;8.646;2022-07-31T05:45:22;17.80;99.90
20845;DHT22;10583;49.084;8.646;2022-07-31T05:47:49;17.80;99.90
20845;DHT22;10583;49.084;8.646;2022-07-31T05:50:15;17.90;99.90
20845;DHT22;10583;49.084;8.646;2022-07-31T05:52:42;18.00;99.90
20845;DHT22;10583;49.084;8.646;2022-07-31T05:55:09;18.10;99.90
20845;DHT22;10583;49.084;8.646;2022-07-31T05:57:37;18.20;99.90
20845;DHT22;10583;49.084;8.646;2022-07-31T06:00:04;18.30;99.90
20845;DHT22;10583;49.084;8.646;2022-07-31T06:02:31;18.40;99.90
20845;DHT22;10583;49.084;8.646;2022-07-31T06:04:58;18.40;99.90
20845;DHT22;10583;49.084;8.646;2022-07-31T06:07:24;18.50;99.90
20845;DHT22;10583;49.084;8.646;2022-07-31T06:09:51;18.60;99.90
20845;DHT22;10583;49.084;8.646;2022-07-31T06:12:18;18.70;99.90
20845;DHT22;10583;49.084;8.646;2022-07-31T06:14:46;18.70;99.90
20845;DHT22;10583;49.084;8.646;2022-07-31T06:17:12;18.80;99.90
20845;DHT22;10583;49.084;8.646;2022-07-31T06:19:39;18.70;99.90
20845;DHT22;10583;49.084;8.646;2022-07-31T06:22:06;18.70;99.90
20845;DHT22;10583;49.084;8.646;2022-07-31T06:24:32;18.80;99.90
20845;DHT22;10583;49.084;8.646;2022-07-31T06:26:59;18.90;99.90
20845;DHT22;10583;49.084;8.646;2022-07-31T06:29:27;19.00;99.90
20845;DHT22;10583;49.084;8.646;2022-07-31T06:31:55;19.10;99.90
20845;DHT22;10583;49.084;8.646;2022-07-31T06:34:22;19.20;99.90
20845;DHT22;10583;49.084;8.646;2022-07-31T06:36:49;19.30;99.90
20845;DHT22;10583;49.084;8.646;2022-07-31T06:39:16;19.40;99.90
20845;DHT22;10583;49.084;8.646;2022-07-31T06:41:43;19.50;99.90
20845;DHT22;10583;49.084;8.646;2022-07-31T06:44:11;19.50;99.90
20845;DHT22;10583;49.084;8.646;2022-07-31T06:46:38;19.60;99.90
20845;DHT22;10583;49.084;8.646;2022-07-31T06:49:06;19.70;99.90
20845;DHT22;10583;49.084;8.646;2022-07-31T06:51:33;19.90;99.90
20845;DHT22;10583;49.084;8.646;2022-07-31T06:54:01;20.10;99.90
20845;DHT22;10583;49.084;8.646;2022-07-31T06:56:28;20.30;99.90
20845;DHT22;10583;49.084;8.646;2022-07-31T06:58:55;20.50;99.90
20845;DHT22;10583;49.084;8.646;2022-07-31T07:01:22;20.70;99.90
20845;DHT22;10583;49.084;8.646;2022-07-31T07:03:49;20.80;99.90
20845;DHT22;10583;49.084;8.646;2022-07-31T07:06:17;20.90;99.90
20845;DHT22;10583;49.084;8.646;2022-07-31T07:08:44;21.10;99.90
20845;DHT22;10583;49.084;8.646;2022-07-31T07:11:11;21.20;99.90
20845;DHT22;10583;49.084;8.646;2022-07-31T07:13:38;21.30;99.90
20845;DHT22;10583;49.084;8.646;2022-07-31T07:16:04;21.30;99.90
20845;DHT22;10583;49.084;8.646;2022-07-31T07:18:31;21.40;99.90
20845;DHT22;10583;49.084;8.646;2022-07-31T07:20:58;21.50;99.90
20845;DHT22;10583;49.084;8.646;2022-07-31T07:23:26;21.70;99.90
20845;DHT22;10583;49.084;8.646;2022-07-31T07:25:53;22.00;99.90
20845;DHT22;10583;49.084;8.646;2022-07-31T07:28:19;22.30;99.90
20845;DHT22;10583;49.084;8.646;2022-07-31T07:30:46;22.60;99.90
20845;DHT22;10583;49.084;8.646;2022-07-31T07:33:12;22.70;99.90
20845;DHT22;10583;49.084;8.646;2022-07-31T07:35:39;22.80;99.90
20845;DHT22;10583;49.084;8.646;2022-07-31T07:38:06;22.90;99.60
20845;DHT22;10583;49.084;8.646;2022-07-31T07:40:34;23.20;99.90
20845;DHT22;10583;49.084;8.646;2022-07-31T07:43:01;23.70;99.90
20845;DHT22;10583;49.084;8.646;2022-07-31T07:45:28;24.20;99.00
20845;DHT22;10583;49.084;8.646;2022-07-31T07:47:54;24.10;98.40
20845;DHT22;10583;49.084;8.646;2022-07-31T07:50:21;24.20;98.20
20845;DHT22;10583;49.084;8.646;2022-07-31T07:52:48;24.60;97.10
20845;DHT22;10583;49.084;8.646;2022-07-31T07:55:14;24.60;97.50
20845;DHT22;10583;49.084;8.646;2022-07-31T07:57:44;24.70;96.80
20845;DHT22;10583;49.084;8.646;2022-07-31T08:00:12;24.60;97.10
20845;DHT22;10583;49.084;8.646;2022-07-31T08:02:38;24.60;97.40
20845;DHT22;10583;49.084;8.646;2022-07-31T08:05:07;24.70;96.50
20845;DHT22;10583;49.084;8.646;2022-07-31T08:07:35;24.80;96.20
20845;DHT22;10583;49.084;8.646;2022-07-31T08:10:03;24.80;96.00
20845;DHT22;10583;49.084;8.646;2022-07-31T08:12:30;24.80;95.70
20845;DHT22;10583;49.084;8.646;2022-07-31T08:14:59;24.90;96.50
20845;DHT22;10583;49.084;8.646;2022-07-31T08:17:25;25.50;96.10
20845;DHT22;10583;49.084;8.646;2022-07-31T08:19:52;26.30;95.30
20845;DHT22;10583;49.084;8.646;2022-07-31T08:22:19;26.90;94.40
20845;DHT22;10583;49.084;8.646;2022-07-31T08:24:45;27.00;93.30
20845;DHT22;10583;49.084;8.646;2022-07-31T08:27:12;26.90;93.00
20845;DHT22;10583;49.084;8.646;2022-07-31T08:29:53;26.70;93.60
20845;DHT22;10583;49.084;8.646;2022-07-31T08:32:22;27.10;93.10
20845;DHT22;10583;49.084;8.646;2022-07-31T08:34:48;27.60;93.00
20845;DHT22;10583;49.084;8.646;2022-07-31T08:37:15;27.90;91.30
20845;DHT22;10583;49.084;8.646;2022-07-31T08:39:44;28.10;91.50
20845;DHT22;10583;49.084;8.646;2022-07-31T08:42:11;28.40;91.70
20845;DHT22;10583;49.084;8.646;2022-07-31T08:44:39;28.50;91.40
20845;DHT22;10583;49.084;8.646;2022-07-31T08:47:07;28.20;91.10
20845;DHT22;10583;49.084;8.646;2022-07-31T08:49:38;27.70;90.80
20845;DHT22;10583;49.084;8.646;2022-07-31T08:52:08;27.20;91.70
20845;DHT22;10583;49.084;8.646;2022-07-31T08:54:35;27.10;92.30
20845;DHT22;10583;49.084;8.646;2022-07-31T08:57:02;27.20;92.00
20845;DHT22;10583;49.084;8.646;2022-07-31T08:59:30;27.40;91.50
20845;DHT22;10583;49.084;8.646;2022-07-31T09:01:57;27.30;91.20
20845;DHT22;10583;49.084;8.646;2022-07-31T09:04:24;27.30;91.20
20845;DHT22;10583;49.084;8.646;2022-07-31T09:06:52;27.60;91.70
20845;DHT22;10583;49.084;8.646;2022-07-31T09:09:20;28.00;91.00
20845;DHT22;10583;49.084;8.646;2022-07-31T09:11:47;28.20;90.50
20845;DHT22;10583;49.084;8.646;2022-07-31T09:14:23;28.20;90.70
20845;DHT22;10583;49.084;8.646;2022-07-31T09:16:50;28.20;90.50
20845;DHT22;10583;49.084;8.646;2022-07-31T09:19:19;28.30;90.50
20845;DHT22;10583;49.084;8.646;2022-07-31T09:21:46;28.50;89.80
20845;DHT22;10583;49.084;8.646;2022-07-31T09:24:26;28.90;90.10
20845;DHT22;10583;49.084;8.646;2022-07-31T09:27:01;29.50;89.10
20845;DHT22;10583;49.084;8.646;2022-07-31T09:29:34;29.90;88.90
20845;DHT22;10583;49.084;8.646;2022-07-31T09:32:08;30.30;86.80
20845;DHT22;10583;49.084;8.646;2022-07-31T09:34:36;30.50;86.50
20845;DHT22;10583;49.084;8.646;2022-07-31T09:37:10;30.60;86.20
20845;DHT22;10583;49.084;8.646;2022-07-31T09:39:39;30.70;86.10
20845;DHT22;10583;49.084;8.646;2022-07-31T09:42:07;30.90;86.70
20845;DHT22;10583;49.084;8.646;2022-07-31T09:44:35;31.30;85.10
20845;DHT22;10583;49.084;8.646;2022-07-31T09:47:03;31.20;84.70
20845;DHT22;10583;49.084;8.646;2022-07-31T09:49:31;31.50;84.30
20845;DHT22;10583;49.084;8.646;2022-07-31T09:51:58;32.10;82.80
20845;DHT22;10583;49.084;8.646;2022-07-31T09:54:27;32.30;80.40
20845;DHT22;10583;49.084;8.646;2022-07-31T09:56:55;32.00;79.70
20845;DHT22;10583;49.084;8.646;2022-07-31T09:59:22;32.70;80.60
20845;DHT22;10583;49.084;8.646;2022-07-31T10:01:51;33.10;79.30
20845;DHT22;10583;49.084;8.646;2022-07-31T10:04:20;33.20;77.00
20845;DHT22;10583;49.084;8.646;2022-07-31T10:06:48;32.70;77.80
20845;DHT22;10583;49.084;8.646;2022-07-31T10:09:17;32.60;77.00
20845;DHT22;10583;49.084;8.646;2022-07-31T10:11:45;31.80;79.50
20845;DHT22;10583;49.084;8.646;2022-07-31T10:14:20;31.40;78.60
20845;DHT22;10583;49.084;8.646;2022-07-31T10:16:47;30.80;78.50
20845;DHT22;10583;49.084;8.646;2022-07-31T10:19:18;30.70;79.10
20845;DHT22;10583;49.084;8.646;2022-07-31T10:21:50;30.70;79.90
20845;DHT22;10583;49.084;8.646;2022-07-31T10:24:20;30.80;80.70
20845;DHT22;10583;49.084;8.646;2022-07-31T10:26:48;30.90;79.50
20845;DHT22;10583;49.084;8.646;2022-07-31T10:29:16;30.90;80.10
20845;DHT22;10583;49.084;8.646;2022-07-31T10:31:44;31.00;79.50
20845;DHT22;10583;49.084;8.646;2022-07-31T10:34:11;31.20;79.30
20845;DHT22;10583;49.084;8.646;2022-07-31T10:36:40;31.60;78.10
20845;DHT22;10583;49.084;8.646;2022-07-31T10:39:13;31.70;78.60
20845;DHT22;10583;49.084;8.646;2022-07-31T10:41:45;31.80;77.00
20845;DHT22;10583;49.084;8.646;2022-07-31T10:44:22;31.50;77.60
20845;DHT22;10583;49.084;8.646;2022-07-31T10:46:53;31.60;78.50
20845;DHT22;10583;49.084;8.646;2022-07-31T10:49:37;31.50;77.70
20845;DHT22;10583;49.084;8.646;2022-07-31T10:52:04;31.40;78.40
20845;DHT22;10583;49.084;8.646;2022-07-31T10:54:38;31.70;77.10
20845;DHT22;10583;49.084;8.646;2022-07-31T10:57:04;32.40;77.30
20845;DHT22;10583;49.084;8.646;2022-07-31T10:59:32;32.60;75.20
20845;DHT22;10583;49.084;8.646;2022-07-31T11:01:59;32.00;75.60
20845;DHT22;10583;49.084;8.646;2022-07-31T11:04:27;31.60;77.40
20845;DHT22;10583;49.084;8.646;2022-07-31T11:06:55;31.30;76.10
20845;DHT22;10583;49.084;8.646;2022-07-31T11:09:22;31.40;77.70
20845;DHT22;10583;49.084;8.646;2022-07-31T11:11:49;31.00;78.50
20845;DHT22;10583;49.084;8.646;2022-07-31T11:14:16;30.80;78.20
20845;DHT22;10583;49.084;8.646;2022-07-31T11:16:53;30.70;79.70
20845;DHT22;10583;49.084;8.646;2022-07-31T11:19:20;31.60;79.00
20845;DHT22;10583;49.084;8.646;2022-07-31T11:21:47;31.70;76.00
20845;DHT22;10583;49.084;8.646;2022-07-31T11:24:15;31.10;76.90
20845;DHT22;10583;49.084;8.646;2022-07-31T11:26:47;30.70;77.70
20845;DHT22;10583;49.084;8.646;2022-07-31T11:29:25;31.40;77.90
20845;DHT22;10583;49.084;8.646;2022-07-31T11:31:53;31.70;77.30
20845;DHT22;10583;49.084;8.646;2022-07-31T11:34:20;32.30;77.60
20845;DHT22;10583;49.084;8.646;2022-07-31T11:36:46;32.90;76.80
20845;DHT22;10583;49.084;8.646;2022-07-31T11:39:13;32.80;75.90
20845;DHT22;10583;49.084;8.646;2022-07-31T11:41:40;33.60;74.60
20845;DHT22;10583;49.084;8.646;2022-07-31T11:44:06;34.20;74.30
20845;DHT22;10583;49.084;8.646;2022-07-31T11:46:34;34.70;74.50
20845;DHT22;10583;49.084;8.646;2022-07-31T11:49:03;34.60;73.50
20845;DHT22;10583;49.084;8.646;2022-07-31T11:51:30;34.30;73.10
20845;DHT22;10583;49.084;8.646;2022-07-31T11:53:57;34.00;73.20
20845;DHT22;10583;49.084;8.646;2022-07-31T11:56:26;34.30;73.70
20845;DHT22;10583;49.084;8.646;2022-07-31T11:58:53;34.20;73.00
20845;DHT22;10583;49.084;8.646;2022-07-31T12:01:23;33.20;73.50
20845;DHT22;10583;49.084;8.646;2022-07-31T12:03:51;32.60;75.20
20845;DHT22;10583;49.084;8.646;2022-07-31T12:06:19;33.00;75.60
20845;DHT22;10583;49.084;8.646;2022-07-31T12:08:46;33.50;74.40
20845;DHT22;10583;49.084;8.646;2022-07-31T12:11:17;33.90;74.90
20845;DHT22;10583;49.084;8.646;2022-07-31T12:13:45;33.90;74.10
20845;DHT22;10583;49.084;8.646;2022-07-31T12:16:13;34.10;73.60
20845;DHT22;10583;49.084;8.646;2022-07-31T12:18:46;34.30;73.10
20845;DHT22;10583;49.084;8.646;2022-07-31T12:21:15;34.40;73.40
20845;DHT22;10583;49.084;8.646;2022-07-31T12:23:45;34.80;72.50
20845;DHT22;10583;49.084;8.646;2022-07-31T12:26:20;34.50;72.70
20845;DHT22;10583;49.084;8.646;2022-07-31T12:28:55;34.70;72.30
20845;DHT22;10583;49.084;8.646;2022-07-31T12:31:22;34.70;71.30
20845;DHT22;10583;49.084;8.646;2022-07-31T12:33:49;34.50;71.60
20845;DHT22;10583;49.084;8.646;2022-07-31T12:36:16;34.80;72.00
20845;DHT22;10583;49.084;8.646;2022-07-31T12:38:44;34.80;71.70
20845;DHT22;10583;49.084;8.646;2022-07-31T12:41:11;35.00;72.00
20845;DHT22;10583;49.084;8.646;2022-07-31T12:43:38;35.10;71.40
20845;DHT22;10583;49.084;8.646;2022-07-31T12:46:04;35.30;71.60
20845;DHT22;10583;49.084;8.646;2022-07-31T12:48:31;35.70;71.80
20845;DHT22;10583;49.084;8.646;2022-07-31T12:50:59;35.90;71.10
20845;DHT22;10583;49.084;8.646;2022-07-31T12:53:27;35.60;70.20
20845;DHT22;10583;49.084;8.646;2022-07-31T12:55:56;35.50;71.10
20845;DHT22;10583;49.084;8.646;2022-07-31T12:58:23;34.70;70.80
20845;DHT22;10583;49.084;8.646;2022-07-31T13:00:50;33.80;71.10
20845;DHT22;10583;49.084;8.646;2022-07-31T13:03:16;33.60;72.80
20845;DHT22;10583;49.084;8.646;2022-07-31T13:05:43;34.00;72.90
20845;DHT22;10583;49.084;8.646;2022-07-31T13:08:10;34.30;72.30
20845;DHT22;10583;49.084;8.646;2022-07-31T13:10:37;34.50;70.70
20845;DHT22;10583;49.084;8.646;2022-07-31T13:13:05;34.20;72.10
20845;DHT22;10583;49.084;8.646;2022-07-31T13:15:32;34.60;71.30
20845;DHT22;10583;49.084;8.646;2022-07-31T13:17:59;35.10;71.60
20845;DHT22;10583;49.084;8.646;2022-07-31T13:20:27;35.20;70.90
20845;DHT22;10583;49.084;8.646;2022-07-31T13:22:55;35.10;71.20
20845;DHT22;10583;49.084;8.646;2022-07-31T13:25:23;34.70;70.40
20845;DHT22;10583;49.084;8.646;2022-07-31T13:27:50;33.80;70.90
20845;DHT22;10583;49.084;8.646;2022-07-31T13:30:18;33.70;71.50
20845;DHT22;10583;49.084;8.646;2022-07-31T13:32:45;34.20;72.10
20845;DHT22;10583;49.084;8.646;2022-07-31T13:35:11;34.40;71.50
20845;DHT22;10583;49.084;8.646;2022-07-31T13:37:38;34.50;71.60
20845;DHT22;10583;49.084;8.646;2022-07-31T13:40:06;34.40;70.40
20845;DHT22;10583;49.084;8.646;2022-07-31T13:42:33;34.00;71.50
20845;DHT22;10583;49.084;8.646;2022-07-31T13:45:00;33.40;71.00
20845;DHT22;10583;49.084;8.646;2022-07-31T13:47:28;33.00;71.40
20845;DHT22;10583;49.084;8.646;2022-07-31T13:49:55;33.30;72.50
20845;DHT22;10583;49.084;8.646;2022-07-31T13:52:22;33.60;70.70
20845;DHT22;10583;49.084;8.646;2022-07-31T13:54:48;33.40;70.80
20845;DHT22;10583;49.084;8.646;2022-07-31T13:57:15;33.20;71.00
20845;DHT22;10583;49.084;8.646;2022-07-31T13:59:42;32.90;70.50
20845;DHT22;10583;49.084;8.646;2022-07-31T14:02:08;32.50;71.30
20845;DHT22;10583;49.084;8.646;2022-07-31T14:04:37;32.00;71.70
20845;DHT22;10583;49.084;8.646;2022-07-31T14:07:03;31.60;71.70
20845;DHT22;10583;49.084;8.646;2022-07-31T14:09:31;31.60;72.50
20845;DHT22;10583;49.084;8.646;2022-07-31T14:12:00;31.90;71.90
20845;DHT22;10583;49.084;8.646;2022-07-31T14:14:27;31.90;71.90
20845;DHT22;10583;49.084;8.646;2022-07-31T14:16:53;32.00;72.40
20845;DHT22;10583;49.084;8.646;2022-07-31T14:19:20;31.90;72.60
20845;DHT22;10583;49.084;8.646;2022-07-31T14:21:48;31.70;72.20
20845;DHT22;10583;49.084;8.646;2022-07-31T14:24:15;31.50;72.50
20845;DHT22;10583;49.084;8.646;2022-07-31T14:26:41;31.50;73.10
20845;DHT22;10583;49.084;8.646;2022-07-31T14:29:08;31.60;71.80
20845;DHT22;10583;49.084;8.646;2022-07-31T14:31:35;31.70;72.50
20845;DHT22;10583;49.084;8.646;2022-07-31T14:34:01;31.90;73.60
20845;DHT22;10583;49.084;8.646;2022-07-31T14:36:28;32.10;72.50
20845;DHT22;10583;49.084;8.646;2022-07-31T14:38:56;32.10;70.70
20845;DHT22;10583;49.084;8.646;2022-07-31T14:41:23;31.90;71.30
20845;DHT22;10583;49.084;8.646;2022-07-31T14:43:49;31.70;72.00
20845;DHT22;10583;49.084;8.646;2022-07-31T14:46:16;31.60;71.50
20845;DHT22;10583;49.084;8.646;2022-07-31T14:48:42;31.40;70.70
20845;DHT22;10583;49.084;8.646;2022-07-31T14:51:15;31.50;71.30
20845;DHT22;10583;49.084;8.646;2022-07-31T14:53:42;31.80;71.40
20845;DHT22;10583;49.084;8.646;2022-07-31T14:56:10;31.90;70.90
20845;DHT22;10583;49.084;8.646;2022-07-31T14:58:37;32.20;71.30
20845;DHT22;10583;49.084;8.646;2022-07-31T15:01:03;32.40;70.30
20845;DHT22;10583;49.084;8.646;2022-07-31T15:03:30;32.40;69.40
20845;DHT22;10583;49.084;8.646;2022-07-31T15:05:57;32.20;70.10
20845;DHT22;10583;49.084;8.646;2022-07-31T15:08:23;32.00;68.80
20845;DHT22;10583;49.084;8.646;2022-07-31T15:10:50;31.60;68.90
20845;DHT22;10583;49.084;8.646;2022-07-31T15:13:18;31.40;70.20
20845;DHT22;10583;49.084;8.646;2022-07-31T15:15:45;31.30;69.80
20845;DHT22;10583;49.084;8.646;2022-07-31T15:18:12;31.30;71.00
20845;DHT22;10583;49.084;8.646;2022-07-31T15:20:40;31.30;70.40
20845;DHT22;10583;49.084;8.646;2022-07-31T15:23:06;31.20;70.10
20845;DHT22;10583;49.084;8.646;2022-07-31T15:25:33;31.20;70.70
20845;DHT22;10583;49.084;8.646;2022-07-31T15:28:00;31.20;69.70
20845;DHT22;10583;49.084;8.646;2022-07-31T15:30:28;31.20;69.80
20845;DHT22;10583;49.084;8.646;2022-07-31T15:32:54;31.00;70.80
20845;DHT22;10583;49.084;8.646;2022-07-31T15:35:21;31.10;70.60